createdAt,value
2022-10-14T00:00:00.221Z,29.9
2022-10-14T00:01:06.130Z,30.5
2022-10-14T00:02:00.364Z,30.5
2022-10-14T00:03:00.248Z,30.5
2022-10-14T00:04:00.365Z,30.5
2022-10-14T00:05:00.254Z,30.5
2022-10-14T00:06:05.224Z,32.4
2022-10-14T00:07:00.265Z,32.4
2022-10-14T00:08:00.240Z,32.4
2022-10-14T00:09:03.787Z,32.4
2022-10-14T00:10:00.229Z,32.4
2022-10-14T00:11:05.976Z,34.0
2022-10-14T00:12:00.308Z,34.0
2022-10-14T00:13:00.226Z,34.0
2022-10-14T00:14:07.050Z,34.0
2022-10-14T00:15:00.418Z,34.0
2022-10-14T00:16:01.687Z,33.7
2022-10-14T00:17:00.250Z,33.7
2022-10-14T00:18:00.228Z,33.7
2022-10-14T00:19:00.843Z,33.7
2022-10-14T00:20:00.486Z,33.7
2022-10-14T00:21:01.430Z,32.6
2022-10-14T00:22:00.257Z,32.6
2022-10-14T00:23:00.551Z,32.6
2022-10-14T00:24:00.393Z,32.6
2022-10-14T00:25:00.336Z,32.6
2022-10-14T00:26:00.255Z,32.0
2022-10-14T00:27:00.255Z,32.0
2022-10-14T00:28:00.223Z,32.0
2022-10-14T00:29:01.244Z,32.0
2022-10-14T00:30:00.293Z,32.0
2022-10-14T00:31:01.045Z,32.2
2022-10-14T00:32:00.351Z,32.2
2022-10-14T00:33:00.232Z,32.2
2022-10-14T00:34:00.383Z,32.2
2022-10-14T00:35:00.231Z,32.2
2022-10-14T00:36:03.365Z,31.2
2022-10-14T00:37:00.258Z,31.2
2022-10-14T00:38:00.242Z,31.2
2022-10-14T00:39:00.241Z,31.2
2022-10-14T00:40:00.227Z,31.2
2022-10-14T00:41:01.073Z,31.6
2022-10-14T00:42:00.266Z,31.6
2022-10-14T00:43:00.223Z,31.6
2022-10-14T00:44:10.173Z,31.6
2022-10-14T00:45:04.946Z,30.7
2022-10-14T00:46:00.218Z,30.7
2022-10-14T00:47:00.298Z,30.7
2022-10-14T00:48:00.242Z,30.7
2022-10-14T00:49:13.355Z,30.7
2022-10-14T00:50:00.944Z,31.5
2022-10-14T00:51:00.263Z,31.5
2022-10-14T00:52:09.738Z,31.5
2022-10-14T00:53:00.561Z,31.5
2022-10-14T00:54:00.468Z,31.5
2022-10-14T00:55:03.860Z,30.3
2022-10-14T00:56:00.670Z,30.3
2022-10-14T00:57:01.176Z,30.3
2022-10-14T00:58:00.318Z,30.3
2022-10-14T00:59:03.560Z,30.3
2022-10-14T01:00:07.475Z,30.8
2022-10-14T01:01:00.252Z,30.8
2022-10-14T01:02:00.486Z,30.8
2022-10-14T01:03:06.672Z,30.8
2022-10-14T01:04:00.246Z,30.8
2022-10-14T01:05:02.389Z,30.6
2022-10-14T01:06:20.123Z,30.6
2022-10-14T01:07:07.138Z,30.6
2022-10-14T01:08:18.068Z,30.6
2022-10-14T01:09:08.154Z,30.6
2022-10-14T01:10:14.600Z,31.1
2022-10-14T01:11:10.407Z,31.1
2022-10-14T01:12:29.107Z,31.1
2022-10-14T01:13:10.713Z,31.1
2022-10-14T01:14:09.857Z,31.1
2022-10-14T01:15:09.316Z,30.8
2022-10-14T01:16:08.633Z,30.8
2022-10-14T01:17:16.088Z,30.8
2022-10-14T01:18:20.122Z,30.8
2022-10-14T01:19:20.147Z,30.8
2022-10-14T01:20:10.162Z,30.7
2022-10-14T01:21:08.687Z,30.7
2022-10-14T01:22:12.376Z,30.7
2022-10-14T01:23:20.129Z,30.7
2022-10-14T01:24:13.782Z,30.7
2022-10-14T01:25:10.488Z,30.4
2022-10-14T01:26:13.876Z,30.4
2022-10-14T01:27:15.276Z,30.4
2022-10-14T01:28:17.910Z,30.4
2022-10-14T01:29:17.498Z,30.4
2022-10-14T01:30:13.395Z,31.5
2022-10-14T01:31:05.871Z,31.5
2022-10-14T01:32:06.670Z,31.5
2022-10-14T01:33:08.798Z,31.5
2022-10-14T01:34:05.962Z,31.5
2022-10-14T01:35:19.796Z,31.6
2022-10-14T01:36:01.238Z,31.6
2022-10-14T01:37:07.674Z,31.6
2022-10-14T01:38:09.193Z,31.6
2022-10-14T01:39:10.654Z,31.6
2022-10-14T01:40:07.496Z,32.5
2022-10-14T01:41:15.304Z,32.5
2022-10-14T01:42:08.224Z,32.5
2022-10-14T01:43:03.407Z,32.5
2022-10-14T01:44:06.475Z,32.5
2022-10-14T01:45:07.757Z,31.8
2022-10-14T01:46:03.913Z,31.8
2022-10-14T01:47:02.192Z,31.8
2022-10-14T01:48:02.053Z,31.8
2022-10-14T01:49:06.105Z,31.8
2022-10-14T01:50:09.956Z,30.3
2022-10-14T01:51:04.988Z,30.3
2022-10-14T01:52:06.679Z,30.3
2022-10-14T01:53:03.674Z,30.3
2022-10-14T01:54:06.095Z,30.3
2022-10-14T01:55:03.121Z,32.1
2022-10-14T01:56:01.518Z,32.1
2022-10-14T01:57:06.501Z,32.1
2022-10-14T01:58:01.478Z,32.1
2022-10-14T01:59:02.561Z,32.1
2022-10-14T02:00:01.457Z,31.6
2022-10-14T02:01:03.394Z,31.6
2022-10-14T02:02:00.491Z,31.6
2022-10-14T02:03:00.398Z,31.6
2022-10-14T02:04:00.249Z,31.6
2022-10-14T02:05:00.673Z,32.2
2022-10-14T02:06:04.727Z,32.2
2022-10-14T02:07:07.935Z,32.2
2022-10-14T02:08:09.949Z,32.2
2022-10-14T02:09:11.224Z,32.2
2022-10-14T02:10:20.129Z,32.6
2022-10-14T02:11:06.689Z,32.6
2022-10-14T02:12:10.189Z,32.6
2022-10-14T02:13:10.162Z,32.6
2022-10-14T02:14:14.103Z,32.6
2022-10-14T02:15:17.015Z,32.0
2022-10-14T02:16:15.822Z,32.0
2022-10-14T02:17:09.181Z,32.0
2022-10-14T02:18:13.983Z,32.0
2022-10-14T02:19:14.774Z,32.0
2022-10-14T02:20:07.476Z,32.9
2022-10-14T02:21:08.619Z,32.9
2022-10-14T02:22:09.411Z,32.9
2022-10-14T02:23:07.479Z,32.9
2022-10-14T02:24:05.819Z,32.9
2022-10-14T02:25:07.283Z,32.1
2022-10-14T02:26:01.197Z,32.1
2022-10-14T02:27:04.717Z,32.1
2022-10-14T02:28:03.264Z,32.1
2022-10-14T02:29:01.630Z,32.1
2022-10-14T02:30:01.225Z,32.9
2022-10-14T02:31:05.874Z,32.9
2022-10-14T02:32:03.760Z,32.9
2022-10-14T02:33:00.420Z,32.9
2022-10-14T02:34:04.283Z,32.9
2022-10-14T02:35:01.740Z,31.7
2022-10-14T02:36:03.915Z,31.7
2022-10-14T02:37:00.626Z,31.7
2022-10-14T02:38:01.595Z,31.7
2022-10-14T02:39:01.193Z,31.7
2022-10-14T02:40:08.555Z,32.4
2022-10-14T02:41:04.341Z,32.4
2022-10-14T02:42:00.446Z,32.4
2022-10-14T02:43:00.549Z,32.4
2022-10-14T02:44:00.697Z,32.4
2022-10-14T02:45:00.727Z,31.9
2022-10-14T02:46:02.100Z,31.9
2022-10-14T02:47:00.270Z,31.9
2022-10-14T02:48:00.231Z,31.9
2022-10-14T02:49:00.618Z,31.9
2022-10-14T02:50:00.368Z,32.0
2022-10-14T02:51:00.223Z,32.0
2022-10-14T02:52:00.374Z,32.0
2022-10-14T02:53:00.479Z,32.0
2022-10-14T02:54:00.228Z,32.0
2022-10-14T02:55:00.252Z,30.9
2022-10-14T02:56:00.259Z,30.9
2022-10-14T02:57:00.232Z,30.9
2022-10-14T02:58:00.231Z,30.9
2022-10-14T02:59:00.225Z,30.9
2022-10-14T03:00:00.380Z,32.3
2022-10-14T03:01:00.218Z,32.3
2022-10-14T03:02:00.346Z,32.3
2022-10-14T03:03:00.546Z,32.3
2022-10-14T03:04:00.238Z,32.3
2022-10-14T03:05:00.251Z,32.1
2022-10-14T03:06:00.414Z,32.1
2022-10-14T03:07:00.661Z,32.1
2022-10-14T03:08:00.283Z,32.1
2022-10-14T03:09:00.228Z,32.1
2022-10-14T03:10:00.365Z,32.2
2022-10-14T03:11:00.258Z,32.2
2022-10-14T03:12:00.279Z,32.2
2022-10-14T03:13:00.220Z,32.2
2022-10-14T03:14:00.223Z,32.2
2022-10-14T03:15:00.235Z,31.1
2022-10-14T03:16:00.265Z,31.1
2022-10-14T03:17:00.221Z,31.1
2022-10-14T03:18:00.270Z,31.1
2022-10-14T03:19:00.221Z,31.1
2022-10-14T03:20:00.235Z,31.9
2022-10-14T03:21:00.336Z,31.9
2022-10-14T03:22:00.395Z,31.9
2022-10-14T03:23:00.254Z,31.9
2022-10-14T03:24:00.270Z,31.9
2022-10-14T03:25:00.279Z,31.2
2022-10-14T03:26:00.278Z,31.2
2022-10-14T03:27:00.308Z,31.2
2022-10-14T03:28:00.251Z,31.2
2022-10-14T03:29:00.332Z,31.2
2022-10-14T03:30:00.309Z,32.2
2022-10-14T03:31:00.305Z,32.2
2022-10-14T03:32:00.236Z,32.2
2022-10-14T03:33:00.245Z,32.2
2022-10-14T03:34:00.219Z,32.2
2022-10-14T03:35:00.247Z,32.6
2022-10-14T03:36:00.448Z,32.6
2022-10-14T03:37:00.250Z,32.6
2022-10-14T03:38:00.236Z,32.6
2022-10-14T03:39:00.332Z,32.6
2022-10-14T03:40:00.230Z,33.2
2022-10-14T03:41:00.515Z,33.2
2022-10-14T03:42:00.392Z,33.2
2022-10-14T03:43:00.350Z,33.2
2022-10-14T03:44:00.265Z,33.2
2022-10-14T03:45:00.235Z,33.0
2022-10-14T03:46:00.216Z,33.0
2022-10-14T03:47:00.245Z,33.0
2022-10-14T03:48:00.253Z,33.0
2022-10-14T03:49:00.223Z,33.0
2022-10-14T03:50:00.295Z,32.5
2022-10-14T03:51:00.227Z,32.5
2022-10-14T03:52:00.305Z,32.5
2022-10-14T03:53:00.227Z,32.5
2022-10-14T03:54:00.223Z,32.5
2022-10-14T03:55:00.221Z,33.0
2022-10-14T03:56:00.222Z,33.0
2022-10-14T03:57:00.246Z,33.0
2022-10-14T03:58:00.360Z,33.0
2022-10-14T03:59:00.268Z,33.0
2022-10-14T04:00:00.227Z,32.5
2022-10-14T04:01:00.224Z,32.5
2022-10-14T04:02:00.319Z,32.5
2022-10-14T04:03:00.659Z,32.5
2022-10-14T04:04:00.281Z,32.5
2022-10-14T04:05:01.219Z,33.4
2022-10-14T04:06:00.225Z,33.4
2022-10-14T04:07:00.258Z,33.4
2022-10-14T04:08:00.585Z,33.4
2022-10-14T04:09:00.256Z,33.4
2022-10-14T04:10:00.322Z,35.0
2022-10-14T04:11:00.228Z,35.0
2022-10-14T04:12:00.437Z,35.0
2022-10-14T04:13:00.226Z,35.0
2022-10-14T04:14:00.576Z,35.0
2022-10-14T04:15:00.238Z,35.0
2022-10-14T04:16:03.266Z,35.0
2022-10-14T04:17:00.261Z,35.0
2022-10-14T04:18:00.228Z,35.0
2022-10-14T04:19:00.234Z,35.0
2022-10-14T04:20:00.301Z,33.7
2022-10-14T04:21:01.249Z,33.7
2022-10-14T04:22:00.233Z,33.7
2022-10-14T04:23:00.231Z,33.7
2022-10-14T04:24:03.671Z,33.7
2022-10-14T04:25:00.249Z,33.3
2022-10-14T04:26:04.479Z,33.3
2022-10-14T04:27:00.219Z,33.3
2022-10-14T04:28:00.219Z,33.3
2022-10-14T04:29:00.347Z,33.3
2022-10-14T04:30:00.244Z,32.3
2022-10-14T04:31:00.796Z,32.3
2022-10-14T04:32:00.255Z,32.3
2022-10-14T04:33:00.248Z,32.3
2022-10-14T04:34:00.275Z,32.3
2022-10-14T04:35:00.219Z,34.1
2022-10-14T04:36:03.138Z,34.1
2022-10-14T04:37:00.226Z,34.1
2022-10-14T04:38:00.244Z,34.1
2022-10-14T04:39:00.262Z,34.1
2022-10-14T04:40:00.405Z,35.5
2022-10-14T04:41:00.398Z,35.5
2022-10-14T04:42:00.432Z,35.5
2022-10-14T04:43:00.301Z,35.5
2022-10-14T04:44:00.274Z,35.5
2022-10-14T04:45:00.241Z,35.4
2022-10-14T04:46:00.294Z,35.4
2022-10-14T04:47:00.253Z,35.4
2022-10-14T04:48:00.254Z,35.4
2022-10-14T04:49:00.268Z,35.4
2022-10-14T04:50:00.381Z,38.7
2022-10-14T04:51:00.225Z,38.7
2022-10-14T04:52:00.217Z,38.7
2022-10-14T04:53:00.263Z,38.7
2022-10-14T04:54:00.413Z,38.7
2022-10-14T04:55:00.256Z,37.9
2022-10-14T04:56:00.252Z,37.9
2022-10-14T04:57:00.224Z,37.9
2022-10-14T04:58:00.212Z,37.9
2022-10-14T04:59:00.526Z,37.9
2022-10-14T05:00:00.342Z,37.4
2022-10-14T05:01:00.217Z,37.4
2022-10-14T05:02:00.386Z,37.4
2022-10-14T05:03:00.211Z,37.4
2022-10-14T05:04:00.235Z,37.4
2022-10-14T05:05:00.237Z,37.4
2022-10-14T05:06:00.235Z,37.4
2022-10-14T05:07:00.299Z,37.4
2022-10-14T05:08:00.522Z,37.4
2022-10-14T05:09:00.240Z,37.4
2022-10-14T05:10:00.253Z,37.0
2022-10-14T05:11:00.266Z,37.0
2022-10-14T05:12:00.284Z,37.0
2022-10-14T05:13:00.257Z,37.0
2022-10-14T05:14:00.240Z,37.0
2022-10-14T05:15:00.319Z,35.3
2022-10-14T05:16:00.347Z,35.3
2022-10-14T05:17:00.617Z,35.3
2022-10-14T05:18:00.366Z,35.3
2022-10-14T05:19:00.286Z,35.3
2022-10-14T05:20:00.248Z,33.6
2022-10-14T05:21:00.237Z,33.6
2022-10-14T05:22:00.357Z,33.6
2022-10-14T05:23:00.248Z,33.6
2022-10-14T05:24:00.401Z,33.6
2022-10-14T05:25:00.263Z,32.4
2022-10-14T05:26:00.301Z,32.4
2022-10-14T05:27:00.250Z,32.4
2022-10-14T05:28:00.278Z,32.4
2022-10-14T05:29:00.413Z,32.4
2022-10-14T05:30:00.330Z,32.4
2022-10-14T05:31:00.229Z,32.4
2022-10-14T05:32:00.279Z,32.4
2022-10-14T05:33:00.226Z,32.4
2022-10-14T05:34:02.011Z,32.4
2022-10-14T05:35:00.228Z,32.4
2022-10-14T05:36:00.269Z,32.4
2022-10-14T05:37:00.937Z,32.4
2022-10-14T05:38:04.100Z,32.4
2022-10-14T05:39:00.244Z,32.4
2022-10-14T05:40:00.272Z,33.6
2022-10-14T05:41:00.540Z,33.6
2022-10-14T05:42:00.224Z,33.6
2022-10-14T05:43:00.221Z,33.6
2022-10-14T05:44:00.260Z,33.6
2022-10-14T05:45:00.242Z,31.6
2022-10-14T05:46:00.258Z,31.6
2022-10-14T05:47:00.242Z,31.6
2022-10-14T05:48:00.254Z,31.6
2022-10-14T05:49:00.216Z,31.6
2022-10-14T05:50:00.356Z,31.1
2022-10-14T05:51:00.230Z,31.1
2022-10-14T05:52:00.277Z,31.1
2022-10-14T05:53:00.246Z,31.1
2022-10-14T05:54:00.255Z,31.1
2022-10-14T05:55:00.414Z,30.4
2022-10-14T05:56:05.513Z,30.4
2022-10-14T05:57:00.263Z,30.4
2022-10-14T05:58:00.296Z,30.4
2022-10-14T05:59:00.214Z,30.4
2022-10-14T06:00:00.534Z,31.6
2022-10-14T06:01:01.535Z,31.6
2022-10-14T06:02:01.430Z,31.6
2022-10-14T06:03:00.349Z,31.6
2022-10-14T06:04:00.248Z,31.6
2022-10-14T06:05:00.293Z,31.7
2022-10-14T06:06:00.543Z,31.7
2022-10-14T06:07:00.230Z,31.7
2022-10-14T06:08:00.206Z,31.7
2022-10-14T06:09:00.266Z,31.7
2022-10-14T06:10:00.236Z,31.0
2022-10-14T06:11:02.729Z,31.0
2022-10-14T06:12:00.249Z,31.0
2022-10-14T06:13:01.233Z,31.0
2022-10-14T06:14:00.223Z,31.0
2022-10-14T06:15:00.271Z,31.8
2022-10-14T06:16:03.860Z,31.8
2022-10-14T06:17:00.210Z,31.8
2022-10-14T06:18:00.222Z,31.8
2022-10-14T06:19:00.509Z,31.8
2022-10-14T06:20:00.251Z,34.4
2022-10-14T06:21:00.504Z,34.4
2022-10-14T06:22:00.213Z,34.4
2022-10-14T06:23:00.696Z,34.4
2022-10-14T06:24:00.246Z,34.4
2022-10-14T06:25:03.955Z,34.3
2022-10-14T06:26:02.986Z,34.3
2022-10-14T06:27:00.221Z,34.3
2022-10-14T06:28:03.262Z,34.3
2022-10-14T06:29:00.328Z,34.3
2022-10-14T06:30:00.217Z,34.0
2022-10-14T06:31:00.236Z,34.0
2022-10-14T06:32:00.253Z,34.0
2022-10-14T06:33:00.441Z,34.0
2022-10-14T06:34:04.236Z,34.0
2022-10-14T06:35:00.417Z,33.8
2022-10-14T06:36:02.034Z,33.8
2022-10-14T06:37:02.474Z,33.8
2022-10-14T06:38:00.211Z,33.8
2022-10-14T06:39:00.259Z,33.8
2022-10-14T06:40:00.236Z,31.9
2022-10-14T06:41:00.262Z,31.9
2022-10-14T06:42:01.215Z,31.9
2022-10-14T06:43:00.221Z,31.9
2022-10-14T06:44:00.218Z,31.9
2022-10-14T06:45:00.260Z,32.7
2022-10-14T06:46:00.489Z,32.7
2022-10-14T06:47:00.213Z,32.7
2022-10-14T06:48:00.767Z,32.7
2022-10-14T06:49:00.216Z,32.7
2022-10-14T06:50:00.214Z,32.5
2022-10-14T06:51:01.117Z,32.5
2022-10-14T06:52:00.221Z,32.5
2022-10-14T06:53:00.224Z,32.5
2022-10-14T06:54:00.370Z,32.5
2022-10-14T06:55:00.330Z,31.3
2022-10-14T06:56:02.934Z,31.3
2022-10-14T06:57:00.250Z,31.3
2022-10-14T06:58:00.279Z,31.3
2022-10-14T06:59:00.233Z,31.3
2022-10-14T07:00:00.316Z,31.8
2022-10-14T07:01:01.222Z,31.8
2022-10-14T07:02:00.255Z,31.8
2022-10-14T07:03:00.220Z,31.8
2022-10-14T07:04:00.211Z,31.8
2022-10-14T07:05:00.224Z,32.4
2022-10-14T07:06:02.892Z,32.4
2022-10-14T07:07:00.240Z,32.4
2022-10-14T07:09:00.235Z,32.4
2022-10-14T07:10:00.221Z,31.4
2022-10-14T07:11:00.298Z,31.4
2022-10-14T07:12:00.232Z,31.4
2022-10-14T07:13:00.249Z,31.4
2022-10-14T07:14:00.268Z,31.4
2022-10-14T07:15:00.493Z,30.4
2022-10-14T07:16:00.230Z,30.4
2022-10-14T07:17:00.210Z,30.4
2022-10-14T07:18:00.276Z,30.4
2022-10-14T07:19:00.223Z,30.4
2022-10-14T07:20:00.234Z,30.1
2022-10-14T07:21:01.905Z,30.1
2022-10-14T07:22:00.430Z,30.1
2022-10-14T07:23:00.397Z,30.1
2022-10-14T07:24:00.236Z,30.1
2022-10-14T07:25:00.264Z,28.8
2022-10-14T07:26:00.590Z,28.8
2022-10-14T07:27:00.516Z,28.8
2022-10-14T07:28:00.273Z,28.8
2022-10-14T07:29:00.360Z,28.8
2022-10-14T07:30:00.318Z,28.4
2022-10-14T07:31:02.533Z,28.4
2022-10-14T07:32:00.231Z,28.4
2022-10-14T07:33:00.594Z,28.4
2022-10-14T07:34:00.532Z,28.4
2022-10-14T07:35:00.339Z,28.1
2022-10-14T07:36:03.902Z,28.1
2022-10-14T07:37:00.266Z,28.1
2022-10-14T07:38:00.275Z,28.1
2022-10-14T07:39:00.347Z,28.1
2022-10-14T07:40:00.321Z,27.1
2022-10-14T07:41:04.150Z,27.1
2022-10-14T07:42:00.240Z,27.1
2022-10-14T07:43:00.221Z,27.1
2022-10-14T07:44:02.828Z,27.1
2022-10-14T07:45:00.278Z,26.9
2022-10-14T07:46:02.637Z,26.9
2022-10-14T07:47:00.244Z,26.9
2022-10-14T07:48:00.760Z,26.9
2022-10-14T07:49:05.543Z,26.9
2022-10-14T07:50:00.432Z,26.9
2022-10-14T07:51:00.999Z,26.9
2022-10-14T07:52:00.299Z,26.9
2022-10-14T07:53:01.238Z,26.9
2022-10-14T07:54:02.440Z,26.9
2022-10-14T07:55:00.248Z,27.0
2022-10-14T07:56:00.580Z,27.0
2022-10-14T07:57:00.254Z,27.0
2022-10-14T07:58:00.231Z,27.0
2022-10-14T07:59:00.368Z,27.0
2022-10-14T08:00:00.440Z,26.4
2022-10-14T08:01:00.270Z,26.4
2022-10-14T08:02:00.377Z,26.4
2022-10-14T08:03:00.210Z,26.4
2022-10-14T08:04:00.265Z,26.4
2022-10-14T08:05:19.065Z,27.0
2022-10-14T08:06:02.522Z,27.0
2022-10-14T08:07:00.282Z,27.0
2022-10-14T08:08:00.227Z,27.0
2022-10-14T08:09:00.280Z,27.0
2022-10-14T08:10:00.354Z,28.3
2022-10-14T08:11:08.799Z,28.3
2022-10-14T08:12:00.245Z,28.3
2022-10-14T08:13:00.294Z,28.3
2022-10-14T08:14:00.382Z,28.3
2022-10-14T08:15:00.328Z,27.2
2022-10-14T08:16:00.721Z,27.2
2022-10-14T08:17:00.247Z,27.2
2022-10-14T08:18:00.231Z,27.2
2022-10-14T08:19:03.501Z,27.2
2022-10-14T08:20:00.234Z,26.1
2022-10-14T08:21:00.238Z,26.1
2022-10-14T08:22:00.221Z,26.1
2022-10-14T08:23:00.305Z,26.1
2022-10-14T08:24:00.589Z,26.1
2022-10-14T08:25:00.375Z,26.7
2022-10-14T08:26:00.267Z,26.7
2022-10-14T08:27:00.252Z,26.7
2022-10-14T08:28:00.234Z,26.7
2022-10-14T08:29:04.053Z,26.7
2022-10-14T08:30:00.224Z,27.4
2022-10-14T08:31:00.228Z,27.4
2022-10-14T08:32:00.226Z,27.4
2022-10-14T08:33:00.415Z,27.4
2022-10-14T08:34:00.422Z,27.4
2022-10-14T08:35:00.381Z,25.2
2022-10-14T08:36:00.241Z,25.2
2022-10-14T08:37:00.787Z,25.2
2022-10-14T08:38:01.155Z,25.2
2022-10-14T08:39:00.361Z,25.2
2022-10-14T08:40:00.254Z,27.3
2022-10-14T08:42:15.131Z,27.3
2022-10-14T08:43:13.873Z,27.3
2022-10-14T08:44:13.698Z,25.8
2022-10-14T08:45:05.368Z,25.8
2022-10-14T08:46:19.920Z,25.8
2022-10-14T08:47:03.626Z,25.8
2022-10-14T08:48:07.761Z,25.8
2022-10-14T08:49:11.207Z,26.1
2022-10-14T08:50:05.557Z,26.1
2022-10-14T08:51:08.858Z,26.1
2022-10-14T08:52:07.688Z,26.1
2022-10-14T08:53:10.451Z,26.1
2022-10-14T08:54:05.388Z,26.1
2022-10-14T08:55:10.955Z,25.5
2022-10-14T08:56:01.709Z,25.5
2022-10-14T08:57:02.091Z,25.5
2022-10-14T08:58:11.574Z,25.5
2022-10-14T08:59:07.102Z,25.5
2022-10-14T09:00:00.839Z,25.0
2022-10-14T09:01:13.507Z,25.0
2022-10-14T09:02:10.810Z,25.0
2022-10-14T09:03:09.260Z,25.0
2022-10-14T09:04:05.151Z,25.0
2022-10-14T09:05:00.751Z,25.2
2022-10-14T09:06:03.312Z,25.2
2022-10-14T09:07:00.959Z,25.2
2022-10-14T09:08:00.664Z,25.2
2022-10-14T09:09:14.632Z,25.0
2022-10-14T09:10:05.351Z,25.0
2022-10-14T09:11:00.654Z,25.0
2022-10-14T09:12:05.334Z,25.0
2022-10-14T09:13:13.073Z,25.0
2022-10-14T09:14:01.573Z,25.0
2022-10-14T09:15:16.384Z,25.2
2022-10-14T09:16:06.006Z,25.2
2022-10-14T09:17:09.234Z,25.2
2022-10-14T09:18:10.159Z,25.2
2022-10-14T09:19:04.656Z,25.2
2022-10-14T09:20:11.197Z,24.1
2022-10-14T09:21:07.517Z,24.1
2022-10-14T09:22:00.757Z,24.1
2022-10-14T09:23:13.357Z,24.1
2022-10-14T09:24:11.178Z,24.3
2022-10-14T09:25:00.355Z,24.3
2022-10-14T09:26:09.923Z,24.3
2022-10-14T09:27:05.710Z,24.3
2022-10-14T09:28:00.248Z,24.3
2022-10-14T09:29:01.091Z,24.3
2022-10-14T09:30:02.929Z,23.0
2022-10-14T09:31:00.239Z,23.0
2022-10-14T09:32:04.266Z,23.0
2022-10-14T09:33:00.348Z,23.0
2022-10-14T09:34:00.297Z,23.0
2022-10-14T09:35:01.288Z,22.8
2022-10-14T09:36:00.483Z,22.8
2022-10-14T09:37:19.779Z,22.8
2022-10-14T09:38:00.276Z,22.8
2022-10-14T09:39:05.345Z,22.8
2022-10-14T09:40:14.727Z,21.3
2022-10-14T09:41:00.453Z,21.3
2022-10-14T09:42:00.244Z,21.3
2022-10-14T09:43:09.302Z,21.3
2022-10-14T09:44:14.092Z,22.1
2022-10-14T09:46:04.273Z,22.1
2022-10-14T09:47:03.831Z,22.1
2022-10-14T09:48:02.976Z,22.1
2022-10-14T09:49:01.138Z,22.1
2022-10-14T09:50:00.335Z,21.6
2022-10-14T09:51:03.893Z,21.6
2022-10-14T09:52:00.335Z,21.6
2022-10-14T09:53:04.333Z,21.6
2022-10-14T09:54:02.998Z,21.6
2022-10-14T09:55:00.475Z,21.8
2022-10-14T09:56:03.031Z,21.8
2022-10-14T09:57:06.759Z,21.8
2022-10-14T09:58:06.978Z,21.8
2022-10-14T09:59:01.019Z,21.8
2022-10-14T10:00:03.488Z,21.1
2022-10-14T10:01:01.432Z,21.1
2022-10-14T10:02:02.063Z,21.1
2022-10-14T10:03:00.385Z,21.1
2022-10-14T10:04:20.135Z,22.0
2022-10-14T10:05:11.257Z,22.0
2022-10-14T10:06:03.532Z,22.0
2022-10-14T10:07:04.620Z,22.0
2022-10-14T10:08:04.679Z,22.0
2022-10-14T10:09:00.309Z,22.0
2022-10-14T10:10:11.601Z,21.5
2022-10-14T10:11:06.663Z,21.5
2022-10-14T10:12:20.150Z,21.5
2022-10-14T10:13:01.580Z,21.5
2022-10-14T10:14:14.690Z,21.6
2022-10-14T10:15:02.979Z,21.6
2022-10-14T10:16:03.584Z,21.6
2022-10-14T10:17:07.552Z,21.6
2022-10-14T10:18:00.238Z,21.6
2022-10-14T10:19:19.401Z,22.0
2022-10-14T10:20:19.779Z,22.0
2022-10-14T10:21:03.909Z,22.0
2022-10-14T10:23:20.129Z,22.0
2022-10-14T10:24:02.082Z,22.0
2022-10-14T10:25:00.236Z,20.2
2022-10-14T10:26:14.690Z,20.2
2022-10-14T10:27:02.828Z,20.2
2022-10-14T10:28:00.259Z,20.2
2022-10-14T10:29:03.360Z,20.2
2022-10-14T10:30:13.458Z,20.4
2022-10-14T10:31:11.167Z,20.4
2022-10-14T10:32:20.378Z,20.4
2022-10-14T10:33:17.833Z,20.4
2022-10-14T10:34:12.179Z,21.1
2022-10-14T10:35:06.788Z,21.1
2022-10-14T10:36:12.627Z,21.1
2022-10-14T10:37:08.098Z,21.1
2022-10-14T10:38:17.147Z,21.1
2022-10-14T10:39:12.900Z,18.8
2022-10-14T10:40:02.251Z,18.8
2022-10-14T10:41:20.145Z,18.8
2022-10-14T10:42:08.780Z,18.8
2022-10-14T10:43:17.571Z,18.8
2022-10-14T10:44:13.432Z,19.6
2022-10-14T10:45:10.156Z,19.6
2022-10-14T10:46:20.107Z,19.6
2022-10-14T10:47:11.372Z,19.6
2022-10-14T10:48:10.437Z,19.6
2022-10-14T10:49:13.278Z,19.2
2022-10-14T10:50:14.685Z,19.2
2022-10-14T10:51:08.286Z,19.2
2022-10-14T10:52:10.530Z,19.2
2022-10-14T10:53:17.641Z,19.2
2022-10-14T10:54:17.533Z,16.9
2022-10-14T10:55:13.415Z,16.9
2022-10-14T10:56:02.368Z,16.9
2022-10-14T10:57:08.516Z,16.9
2022-10-14T10:58:12.575Z,16.9
2022-10-14T10:59:01.254Z,16.9
2022-10-14T11:00:11.310Z,17.0
2022-10-14T11:01:10.500Z,17.0
2022-10-14T11:02:11.178Z,17.0
2022-10-14T11:03:11.191Z,17.0
2022-10-14T11:04:15.070Z,15.4
2022-10-14T11:05:12.204Z,15.4
2022-10-14T11:06:03.491Z,15.4
2022-10-14T11:07:11.205Z,15.4
2022-10-14T11:08:19.788Z,15.4
2022-10-14T11:09:05.049Z,15.4
2022-10-14T11:10:08.609Z,16.3
2022-10-14T11:11:13.410Z,16.3
2022-10-14T11:12:20.445Z,16.3
2022-10-14T11:13:07.201Z,16.3
2022-10-14T11:14:20.160Z,15.2
2022-10-14T11:15:10.267Z,15.2
2022-10-14T11:16:20.131Z,15.2
2022-10-14T11:17:02.231Z,15.2
2022-10-14T11:18:04.376Z,15.2
2022-10-14T11:19:20.109Z,15.9
2022-10-14T11:20:13.108Z,15.9
2022-10-14T11:21:01.228Z,15.9
2022-10-14T11:22:13.425Z,15.9
2022-10-14T11:23:20.119Z,15.9
2022-10-14T11:24:05.079Z,15.9
2022-10-14T11:25:09.589Z,15.6
2022-10-14T11:26:20.143Z,15.6
2022-10-14T11:27:14.514Z,15.6
2022-10-14T11:28:12.870Z,15.6
2022-10-14T11:29:18.068Z,16.2
2022-10-14T11:30:19.089Z,16.2
2022-10-14T11:31:11.074Z,16.2
2022-10-14T11:32:19.189Z,16.2
2022-10-14T11:33:18.893Z,16.2
2022-10-14T11:34:11.169Z,15.8
2022-10-14T11:35:03.481Z,15.8
2022-10-14T11:36:10.160Z,15.8
2022-10-14T11:37:07.597Z,15.8
2022-10-14T11:38:11.315Z,15.8
2022-10-14T11:39:10.032Z,15.8
2022-10-14T11:40:17.277Z,15.8
2022-10-14T11:41:13.486Z,15.8
2022-10-14T11:42:10.126Z,15.8
2022-10-14T11:43:17.728Z,15.8
2022-10-14T11:44:03.459Z,15.8
2022-10-14T11:45:18.680Z,15.2
2022-10-14T11:46:06.854Z,15.2
2022-10-14T11:47:06.942Z,15.2
2022-10-14T11:48:11.041Z,15.2
2022-10-14T11:49:08.409Z,15.9
2022-10-14T11:50:10.151Z,15.9
2022-10-14T11:51:11.389Z,15.9
2022-10-14T11:52:05.924Z,15.9
2022-10-14T11:53:11.627Z,15.9
2022-10-14T11:54:08.226Z,14.1
2022-10-14T11:55:14.804Z,14.1
2022-10-14T11:56:09.257Z,14.1
2022-10-14T11:57:04.840Z,14.1
2022-10-14T11:58:05.463Z,14.1
2022-10-14T11:59:09.540Z,14.9
2022-10-14T12:00:02.703Z,14.9
2022-10-14T12:01:04.046Z,14.9
2022-10-14T12:02:11.166Z,14.9
2022-10-14T12:03:01.266Z,14.9
2022-10-14T12:04:05.367Z,14.9
2022-10-14T12:05:05.883Z,14.8
2022-10-14T12:06:09.977Z,14.8
2022-10-14T12:07:09.082Z,14.8
2022-10-14T12:08:12.606Z,14.8
2022-10-14T12:09:13.609Z,14.2
2022-10-14T12:10:05.265Z,14.2
2022-10-14T12:11:05.925Z,14.2
2022-10-14T12:12:06.140Z,14.2
2022-10-14T12:13:01.348Z,14.2
2022-10-14T12:14:13.437Z,14.7
2022-10-14T12:15:06.255Z,14.7
2022-10-14T12:16:02.499Z,14.7
2022-10-14T12:17:06.355Z,14.7
2022-10-14T12:18:00.792Z,14.7
2022-10-14T12:19:00.685Z,14.7
2022-10-14T12:20:13.907Z,15.0
2022-10-14T12:21:20.124Z,15.0
2022-10-14T12:22:15.699Z,15.0
2022-10-14T12:23:04.015Z,15.0
2022-10-14T12:24:12.347Z,15.3
2022-10-14T12:25:04.763Z,15.3
2022-10-14T12:26:13.488Z,15.3
2022-10-14T12:27:02.802Z,15.3
2022-10-14T12:28:00.940Z,15.3
2022-10-14T12:29:03.768Z,15.3
2022-10-14T12:30:00.345Z,15.2
2022-10-14T12:31:20.118Z,15.2
2022-10-14T12:32:03.473Z,15.2
2022-10-14T12:33:02.347Z,15.2
2022-10-14T12:34:10.169Z,16.4
2022-10-14T12:35:00.927Z,16.4
2022-10-14T12:36:00.395Z,16.4
2022-10-14T12:37:20.331Z,16.4
2022-10-14T12:38:02.764Z,16.4
2022-10-14T12:39:17.705Z,16.4
2022-10-14T12:40:01.230Z,16.4
2022-10-14T12:41:20.121Z,16.4
2022-10-14T12:42:03.850Z,16.4
2022-10-14T12:43:03.269Z,16.4
2022-10-14T12:44:03.521Z,16.4
2022-10-14T12:45:11.670Z,16.0
2022-10-14T12:46:09.118Z,16.0
2022-10-14T12:47:01.830Z,16.0
2022-10-14T12:48:13.839Z,16.0
2022-10-14T12:49:00.279Z,16.0
2022-10-14T12:50:02.865Z,15.5
2022-10-14T12:51:18.905Z,15.5
2022-10-14T12:52:04.629Z,15.5
2022-10-14T12:53:03.640Z,15.5
2022-10-14T12:54:04.658Z,15.5
2022-10-14T12:55:07.369Z,15.8
2022-10-14T12:56:03.423Z,15.8
2022-10-14T12:57:03.641Z,15.8
2022-10-14T12:58:03.472Z,15.8
2022-10-14T12:59:04.618Z,16.1
2022-10-14T13:00:05.777Z,16.1
2022-10-14T13:01:06.098Z,16.1
2022-10-14T13:02:03.929Z,16.1
2022-10-14T13:03:02.630Z,16.1
2022-10-14T13:04:04.342Z,16.1
2022-10-14T13:05:04.503Z,14.5
2022-10-14T13:06:20.144Z,14.5
2022-10-14T13:07:28.420Z,14.5
2022-10-14T13:08:11.179Z,14.5
2022-10-14T13:09:10.164Z,14.1
2022-10-14T13:10:20.130Z,14.1
2022-10-14T13:11:00.200Z,14.1
2022-10-14T13:12:00.226Z,14.1
2022-10-14T13:13:21.275Z,14.1
2022-10-14T13:14:01.093Z,14.1
2022-10-14T13:15:02.401Z,12.1
2022-10-14T13:16:00.305Z,12.1
2022-10-14T13:17:02.377Z,12.1
2022-10-14T13:18:20.118Z,12.1
2022-10-14T13:19:02.359Z,12.1
2022-10-14T13:20:00.270Z,11.1
2022-10-14T13:21:00.603Z,11.1
2022-10-14T13:22:01.928Z,11.1